createdAt,value
2022-08-10T00:00:52.278Z,101480.25
2022-08-10T00:03:20.118Z,101476.28
2022-08-10T00:05:52.774Z,101476.28
2022-08-10T00:08:23.809Z,101466.34
2022-08-10T00:10:51.947Z,101462.56
2022-08-10T00:13:19.955Z,101466.19
2022-08-10T00:15:53.669Z,101472.69
2022-08-10T00:18:34.996Z,101465.31
2022-08-10T00:21:03.935Z,101473.75
2022-08-10T00:23:31.627Z,101474.59
2022-08-10T00:25:59.418Z,101478.41
2022-08-10T00:28:27.213Z,101473.75
2022-08-10T00:30:54.946Z,101474.78
2022-08-10T00:33:22.781Z,101468.25
2022-08-10T00:35:50.521Z,101469.09
2022-08-10T00:38:18.425Z,101473.53
2022-08-10T00:40:47.045Z,101471.84
2022-08-10T00:43:14.790Z,101468.25
2022-08-10T00:45:59.514Z,101466.53
2022-08-10T00:48:28.222Z,101466.75
2022-08-10T00:50:56.093Z,101458.50
2022-08-10T00:53:23.888Z,101465.69
2022-08-10T00:57:17.037Z,101464.66
2022-08-10T00:58:41.719Z,101460.19
2022-08-10T01:01:23.533Z,101450.28
2022-08-10T01:04:40.159Z,101452.16
2022-08-10T01:06:45.108Z,101460.59
2022-08-10T01:09:12.980Z,101457.84
2022-08-10T01:12:27.757Z,101460.41
2022-08-10T01:14:28.609Z,101465.03
2022-08-10T01:16:56.342Z,101459.53
2022-08-10T01:19:24.105Z,101454.91
2022-08-10T01:21:55.229Z,101466.75
2022-08-10T01:24:25.362Z,101464.19
2022-08-10T01:26:53.166Z,101464.19
2022-08-10T01:29:21.002Z,101461.66
2022-08-10T01:31:48.692Z,101463.34
2022-08-10T01:34:16.501Z,101459.53
2022-08-10T01:36:45.937Z,101465.03
2022-08-10T01:39:13.921Z,101457.84
2022-08-10T01:41:46.381Z,101461.44
2022-08-10T01:44:14.765Z,101463.34
2022-08-10T01:46:42.606Z,101468.81
2022-08-10T01:49:09.280Z,101461.44
2022-08-10T01:51:37.135Z,101458.91
2022-08-10T01:54:09.354Z,101470.91
2022-08-10T01:56:40.658Z,101464.38
2022-08-10T01:59:08.452Z,101453.41
2022-08-10T02:01:36.307Z,101448.94
2022-08-10T02:04:06.135Z,101454.63
2022-08-10T02:06:34.046Z,101458.22
2022-08-10T02:09:06.417Z,101456.50
2022-08-10T02:11:57.539Z,101455.47
2022-08-10T02:14:22.650Z,101457.53
2022-08-10T02:16:50.590Z,101454.63
2022-08-10T02:19:18.466Z,101457.38
2022-08-10T02:22:37.527Z,101460.28
2022-08-10T02:24:33.872Z,101450.34
2022-08-10T02:27:01.566Z,101452.22
2022-08-10T02:29:31.356Z,101448.63
2022-08-10T02:31:59.052Z,101446.72
2022-08-10T02:34:27.638Z,101443.97
2022-08-10T02:36:56.058Z,101452.22
2022-08-10T02:39:24.099Z,101453.09
2022-08-10T02:45:13.074Z,101448.63
2022-08-10T02:45:18.780Z,101449.69
2022-08-10T02:47:27.832Z,101446.28
2022-08-10T02:49:55.533Z,101440.78
2022-08-10T02:52:23.235Z,101441.63
2022-08-10T02:54:51.122Z,101444.19
2022-08-10T02:57:19.443Z,101453.28
2022-08-10T02:59:47.320Z,101449.69
2022-08-10T03:02:15.030Z,101455.16
2022-08-10T03:04:55.275Z,101455.16
2022-08-10T03:07:42.793Z,101461.69
2022-08-10T03:10:14.465Z,101468.22
2022-08-10T03:12:42.573Z,101466.53
2022-08-10T03:15:10.318Z,101469.28
2022-08-10T03:17:43.781Z,101466.53
2022-08-10T03:20:37.956Z,101465.47
2022-08-10T03:23:07.012Z,101457.25
2022-08-10T03:25:34.786Z,101462.75
2022-08-10T03:28:02.693Z,101458.94
2022-08-10T03:30:33.406Z,101457.25
2022-08-10T03:33:01.964Z,101464.81
2022-08-10T03:35:29.775Z,101465.47
2022-08-10T03:38:00.069Z,101470.97
2022-08-10T03:40:44.975Z,101476.47
2022-08-10T03:43:13.660Z,101470.31
2022-08-10T03:45:55.152Z,101469.28
2022-08-10T03:48:23.960Z,101473.94
2022-08-10T03:50:52.704Z,101478.53
2022-08-10T03:53:24.878Z,101474.78
2022-08-10T03:56:28.982Z,101476.84
2022-08-10T03:58:56.246Z,101475.78
2022-08-10T04:02:45.459Z,101477.31
2022-08-10T04:04:13.807Z,101484.03
2022-08-10T04:06:44.492Z,101481.28
2022-08-10T04:09:12.258Z,101492.94
2022-08-10T04:11:40.820Z,101495.50
2022-08-10T04:14:35.582Z,101497.38
2022-08-10T04:16:56.265Z,101499.47
2022-08-10T04:19:24.190Z,101499.47
2022-08-10T04:21:51.977Z,101502.00
2022-08-10T04:24:24.851Z,101499.47
2022-08-10T04:26:57.608Z,101502.22
2022-08-10T04:29:25.335Z,101496.72
2022-08-10T04:31:53.238Z,101498.63
2022-08-10T04:34:21.549Z,101485.53
2022-08-10T04:36:49.301Z,101490.00
2022-08-10T04:39:17.057Z,101491.53
2022-08-10T04:41:47.475Z,101491.53
2022-08-10T04:44:15.405Z,101488.78
2022-08-10T04:46:55.866Z,101494.44
2022-08-10T04:49:55.277Z,101498.25
2022-08-10T04:52:14.518Z,101501.00
2022-08-10T04:54:42.219Z,101501.00
2022-08-10T04:57:09.970Z,101500.78
2022-08-10T04:59:37.667Z,101500.78
2022-08-10T05:02:28.965Z,101504.38
2022-08-10T05:04:53.018Z,101513.50
2022-08-10T05:07:20.752Z,101510.53
2022-08-10T05:10:01.176Z,101505.03
2022-08-10T05:12:34.483Z,101511.41
2022-08-10T05:15:04.423Z,101513.50
2022-08-10T05:17:32.176Z,101504.19
2022-08-10T05:20:02.100Z,101512.28
2022-08-10T05:22:33.076Z,101513.13
2022-08-10T05:25:00.881Z,101521.00
2022-08-10T05:27:28.628Z,101521.00
2022-08-10T05:30:01.714Z,101522.69
2022-08-10T05:32:30.722Z,101518.06
2022-08-10T05:34:58.722Z,101521.66
2022-08-10T05:38:09.694Z,101523.34
2022-08-10T05:40:14.119Z,101525.44
2022-08-10T05:42:46.915Z,101527.31
2022-08-10T05:45:14.675Z,101522.03
2022-08-10T05:48:53.801Z,101525.63
2022-08-10T05:50:32.198Z,101522.88
2022-08-10T05:53:03.739Z,101518.91
2022-08-10T05:55:47.742Z,101526.47
2022-08-10T05:58:16.784Z,101529.22
2022-08-10T06:00:49.722Z,101530.91
2022-08-10T06:03:18.343Z,101529.22
2022-08-10T06:05:51.961Z,101529.22
2022-08-10T06:08:19.685Z,101530.91
2022-08-10T06:12:25.527Z,101534.34
2022-08-10T06:14:13.388Z,101526.31
2022-08-10T06:16:40.764Z,101529.91
2022-08-10T06:19:08.497Z,101537.94
2022-08-10T06:21:36.160Z,101536.91
2022-08-10T06:24:03.841Z,101536.06
2022-08-10T06:26:31.497Z,101533.94
2022-08-10T06:29:02.679Z,101535.66
2022-08-10T06:31:47.834Z,101542.19
2022-08-10T06:34:17.231Z,101539.09
2022-08-10T06:36:44.909Z,101540.78
2022-08-10T06:39:32.997Z,101552.59
2022-08-10T06:42:15.756Z,101542.69
2022-08-10T06:44:45.199Z,101539.09
2022-08-10T06:47:12.963Z,101541.44
2022-08-10T06:49:40.681Z,101544.19
2022-08-10T06:52:08.418Z,101536.97
2022-08-10T06:54:40.817Z,101538.69
2022-08-10T06:57:17.902Z,101532.38
2022-08-10T06:59:46.071Z,101537.47
2022-08-10T07:02:16.619Z,101531.97
2022-08-10T07:04:44.360Z,101534.50
2022-08-10T07:07:12.090Z,101537.94
2022-08-10T07:09:39.766Z,101542.00
2022-08-10T07:12:09.105Z,101531.22
2022-08-10T07:14:37.194Z,101537.16
2022-08-10T07:17:04.939Z,101531.50
2022-08-10T07:19:32.723Z,101528.75
2022-08-10T07:22:00.383Z,101536.13
2022-08-10T07:24:28.109Z,101532.53
2022-08-10T07:26:55.773Z,101523.44
2022-08-10T07:29:53.290Z,101529.97
2022-08-10T07:32:15.758Z,101533.94
2022-08-10T07:34:43.633Z,101522.56
2022-08-10T07:37:11.322Z,101533.56
2022-08-10T07:39:58.253Z,101529.78
2022-08-10T07:42:26.861Z,101535.47
2022-08-10T07:44:54.662Z,101532.53
2022-08-10T07:47:52.990Z,101537.16
2022-08-10T07:50:10.023Z,101531.66
2022-08-10T07:52:38.150Z,101531.50
2022-08-10T07:55:05.867Z,101532.53
2022-08-10T07:57:38.171Z,101526.84
2022-08-10T08:00:08.032Z,101522.19
2022-08-10T08:02:36.039Z,101518.59
2022-08-10T08:05:03.850Z,101523.91
2022-08-10T08:07:31.516Z,101528.56
2022-08-10T08:10:00.777Z,101532.16
2022-08-10T08:12:30.624Z,101512.94
2022-08-10T08:15:02.556Z,101524.59
2022-08-10T08:17:52.541Z,101521.63
2022-08-10T08:20:28.855Z,101516.97
2022-08-10T08:24:05.430Z,101522.28
2022-08-10T08:25:44.364Z,101519.72
2022-08-10T08:28:12.192Z,101519.53
2022-08-10T08:30:40.067Z,101525.88
2022-08-10T08:33:07.887Z,101518.50
2022-08-10T08:35:35.613Z,101525.88
2022-08-10T08:38:31.569Z,101520.22
2022-08-10T08:40:50.910Z,101517.66
2022-08-10T08:43:18.813Z,101512.81
2022-08-10T08:46:01.901Z,101510.25
2022-08-10T08:48:29.963Z,101510.25
2022-08-10T08:50:57.920Z,101504.75
2022-08-10T08:54:01.629Z,101505.41
2022-08-10T08:56:13.353Z,101504.75
2022-08-10T08:58:41.095Z,101503.53
2022-08-10T09:01:11.215Z,101494.66
2022-08-10T09:03:39.454Z,101507.50
2022-08-10T09:06:07.199Z,101498.03
2022-08-10T09:08:34.863Z,101493.41
2022-08-10T09:11:02.591Z,101501.66
2022-08-10T09:13:30.715Z,101502.50
2022-08-10T09:16:00.798Z,101507.78
2022-08-10T09:18:28.624Z,101496.78
2022-08-10T09:20:56.329Z,101495.09
2022-08-10T09:24:01.985Z,101493.19
2022-08-10T09:26:13.259Z,101488.75
2022-08-10T09:28:40.942Z,101494.25
2022-08-10T09:31:21.868Z,101495.94
2022-08-10T09:36:22.960Z,101498.03
2022-08-10T09:36:39.135Z,101493.41
2022-08-10T09:39:07.248Z,101496.16
2022-08-10T09:41:34.995Z,101497.00
2022-08-10T09:44:02.870Z,101487.91
2022-08-10T09:46:30.784Z,101485.16
2022-08-10T09:48:58.702Z,101485.16
2022-08-10T09:51:44.777Z,101488.75
2022-08-10T09:54:13.876Z,101481.38
2022-08-10T09:56:41.632Z,101477.56
2022-08-10T09:59:29.291Z,101484.09
2022-08-10T10:02:03.721Z,101473.50
2022-08-10T10:04:32.018Z,101474.34
2022-08-10T10:07:00.269Z,101469.72
2022-08-10T10:09:30.134Z,101469.72
2022-08-10T10:11:57.903Z,101469.72
2022-08-10T10:14:35.897Z,101466.97
2022-08-10T10:17:03.631Z,101465.06
2022-08-10T10:19:31.764Z,101460.63
2022-08-10T10:21:59.458Z,101464.22
2022-08-10T10:24:27.192Z,101457.69
2022-08-10T10:26:55.021Z,101454.06
2022-08-10T10:29:58.671Z,101457.69
2022-08-10T10:32:10.553Z,101451.53
2022-08-10T10:34:38.310Z,101449.47
2022-08-10T10:37:06.589Z,101435.06
2022-08-10T10:39:34.323Z,101434.00
2022-08-10T10:42:04.556Z,101435.06
2022-08-10T10:44:32.720Z,101427.00
2022-08-10T10:47:00.418Z,101427.84
2022-08-10T10:49:28.928Z,101431.47
2022-08-10T10:52:00.113Z,101428.72
2022-08-10T10:54:29.963Z,101428.72
2022-08-10T10:56:57.626Z,101410.34
2022-08-10T10:59:56.181Z,101422.00
2022-08-10T11:02:13.064Z,101419.88
2022-08-10T11:04:40.776Z,101414.19
2022-08-10T11:07:10.414Z,101411.25
2022-08-10T11:10:05.973Z,101409.75
2022-08-10T11:12:27.537Z,101407.19
2022-08-10T11:14:55.369Z,101414.59
2022-08-10T11:17:23.036Z,101405.09
2022-08-10T11:20:03.031Z,101402.34
2022-08-10T11:22:31.412Z,101403.38
2022-08-10T11:25:04.707Z,101401.50
2022-08-10T11:27:32.413Z,101398.94
2022-08-10T11:30:00.182Z,101397.25
2022-08-10T11:32:27.852Z,101401.03
2022-08-10T11:35:10.628Z,101405.50
2022-08-10T11:38:28.447Z,101398.28
2022-08-10T11:40:27.748Z,101400.38
2022-08-10T11:42:55.489Z,101398.28
2022-08-10T11:45:23.503Z,101398.94
2022-08-10T11:47:51.285Z,101401.69
2022-08-10T11:50:19.013Z,101400.63
2022-08-10T11:52:46.771Z,101400.84
2022-08-10T11:55:14.888Z,101400.00
2022-08-10T11:57:53.843Z,101409.75
2022-08-10T12:00:21.678Z,101401.50
2022-08-10T12:02:49.542Z,101402.34
2022-08-10T12:05:18.136Z,101401.31
2022-08-10T12:10:07.220Z,101401.31
2022-08-10T12:10:37.449Z,101394.97
2022-08-10T12:13:08.056Z,101390.53
2022-08-10T12:15:36.831Z,101390.72
2022-08-10T12:18:04.648Z,101387.78
2022-08-10T12:20:32.561Z,101386.72
2022-08-10T12:23:00.324Z,101380.38
2022-08-10T12:25:57.182Z,101375.91
2022-08-10T12:28:15.910Z,101372.53
2022-08-10T12:30:44.076Z,101380.38
2022-08-10T12:33:11.802Z,101375.91
2022-08-10T12:35:41.968Z,101366.81
2022-08-10T12:38:15.328Z,101360.31
2022-08-10T12:40:43.054Z,101353.94
2022-08-10T12:43:13.378Z,101361.16
2022-08-10T12:46:01.824Z,101348.44
2022-08-10T12:48:32.255Z,101357.34
2022-08-10T12:50:59.976Z,101356.31
2022-08-10T12:53:27.710Z,101353.56
2022-08-10T12:55:55.443Z,101352.69
2022-08-10T12:58:59.044Z,101343.81
2022-08-10T13:01:16.452Z,101348.44
2022-08-10T13:04:20.799Z,101341.91
2022-08-10T13:06:32.742Z,101338.50
2022-08-10T13:09:09.752Z,101334.09
2022-08-10T13:12:35.690Z,101335.09
2022-08-10T13:14:25.126Z,101336.16
2022-08-10T13:16:52.820Z,101325.84
2022-08-10T13:19:21.530Z,101322.03
2022-08-10T13:21:49.195Z,101322.69
2022-08-10T13:24:16.966Z,101314.44
2022-08-10T13:27:24.848Z,101310.66
2022-08-10T13:29:36.154Z,101314.44
2022-08-10T13:32:10.618Z,101320.13
2022-08-10T13:34:42.464Z,101315.47
2022-08-10T13:37:12.493Z,101320.97
2022-08-10T13:39:59.424Z,101310.84
2022-08-10T13:42:31.677Z,101305.56
2022-08-10T13:45:00.366Z,101306.63
2022-08-10T13:47:28.380Z,101305.56
2022-08-10T13:49:56.041Z,101302.81
2022-08-10T13:52:23.833Z,101299.22
2022-08-10T13:54:51.852Z,101296.47
2022-08-10T13:57:19.549Z,101290.97
2022-08-10T14:00:36.352Z,101290.13
2022-08-10T14:02:35.773Z,101288.41
2022-08-10T14:05:03.638Z,101290.13
2022-08-10T14:07:31.319Z,101279.31
2022-08-10T14:09:59.402Z,101278.47
2022-08-10T14:12:31.953Z,101281.00
2022-08-10T14:15:01.311Z,101285.66
2022-08-10T14:17:29.021Z,101280.16
2022-08-10T14:19:58.717Z,101280.81
2022-08-10T14:22:34.028Z,101278.94
2022-08-10T14:25:02.306Z,101278.94
2022-08-10T14:28:02.116Z,101272.41
2022-08-10T14:30:17.884Z,101266.03
2022-08-10T14:32:45.629Z,101264.16
2022-08-10T14:36:21.548Z,101266.03
2022-08-10T14:38:02.812Z,101256.09
2022-08-10T14:40:31.406Z,101261.41
2022-08-10T14:42:59.125Z,101259.50
2022-08-10T14:45:26.999Z,101254.84
2022-08-10T14:47:59.298Z,101254.00
2022-08-10T14:50:32.771Z,101252.28
2022-08-10T14:53:01.203Z,101250.22
2022-08-10T14:55:28.966Z,101258.44
2022-08-10T14:58:16.907Z,101248.31
2022-08-10T15:00:46.093Z,101248.13
2022-08-10T15:03:59.610Z,101242.63
2022-08-10T15:06:02.435Z,101239.22
2022-08-10T15:08:36.889Z,101249.19
2022-08-10T15:11:04.989Z,101238.19
2022-08-10T15:13:34.593Z,101241.97
2022-08-10T15:16:12.527Z,101234.56
2022-08-10T15:18:41.987Z,101233.72
2022-08-10T15:21:35.633Z,101233.72
2022-08-10T15:24:10.908Z,101229.28
2022-08-10T15:26:38.686Z,101225.47
2022-08-10T15:29:24.402Z,101227.19
2022-08-10T15:32:11.433Z,101224.47
2022-08-10T15:34:56.705Z,101227.19
2022-08-10T15:37:47.165Z,101229.72
2022-08-10T15:40:25.053Z,101218.97
2022-08-10T15:42:58.418Z,101224.47
2022-08-10T15:45:26.291Z,101214.09
2022-08-10T15:48:02.930Z,101219.59
2022-08-10T15:50:31.637Z,101220.44
2022-08-10T15:53:01.801Z,101219.59
2022-08-10T15:55:43.710Z,101216.84
2022-08-10T15:58:13.426Z,101217.91
2022-08-10T16:00:41.249Z,101219.59
2022-08-10T16:03:12.988Z,101222.34
2022-08-10T16:06:02.027Z,101216.22
2022-08-10T16:08:29.009Z,101212.81
2022-08-10T16:10:56.729Z,101207.31
2022-08-10T16:13:51.058Z,101209.84
2022-08-10T16:16:12.579Z,101213.66
2022-08-10T16:18:40.343Z,101204.34
2022-08-10T16:21:08.274Z,101202.66
2022-08-10T16:23:35.968Z,101205.41
2022-08-10T16:26:14.742Z,101203.50
2022-08-10T16:28:43.717Z,101200.97
2022-08-10T16:31:11.442Z,101204.56
2022-08-10T16:33:52.796Z,101202.66
2022-08-10T16:36:22.544Z,101190.84
2022-08-10T16:38:50.277Z,101199.25
2022-08-10T16:42:00.780Z,101202.66
2022-08-10T16:44:06.459Z,101195.66
2022-08-10T16:46:49.570Z,101189.13
2022-08-10T16:49:17.455Z,101187.44
2022-08-10T16:51:45.237Z,101188.28
2022-08-10T16:54:13.003Z,101183.00
2022-08-10T16:56:48.857Z,101191.88
2022-08-10T16:59:17.762Z,101188.28
2022-08-10T17:01:51.505Z,101179.84
2022-08-10T17:04:22.042Z,101185.34
2022-08-10T17:06:55.241Z,101185.53
2022-08-10T17:09:23.762Z,101183.63
2022-08-10T17:11:51.530Z,101180.03
2022-08-10T17:14:19.267Z,101188.28
2022-08-10T17:16:47.000Z,101185.75
2022-08-10T17:19:14.872Z,101183.63
2022-08-10T17:21:51.817Z,101180.69
2022-08-10T17:24:20.003Z,101179.00
2022-08-10T17:26:47.716Z,101172.63
2022-08-10T17:29:50.599Z,101178.13
2022-08-10T17:32:03.994Z,101179.19
2022-08-10T17:34:31.779Z,101186.38
2022-08-10T17:36:59.530Z,101167.13
2022-08-10T17:39:27.466Z,101172.63
2022-08-10T17:41:55.218Z,101173.69
2022-08-10T17:44:22.933Z,101175.38
2022-08-10T17:46:50.640Z,101172.84
2022-08-10T17:49:18.557Z,101165.47
2022-08-10T17:51:46.286Z,101169.88
2022-08-10T17:54:13.968Z,101176.44
2022-08-10T17:56:41.722Z,101167.34
2022-08-10T17:59:17.182Z,101168.38
2022-08-10T18:01:58.939Z,101178.53
2022-08-10T18:04:35.648Z,101174.94
2022-08-10T18:07:09.340Z,101180.44
2022-08-10T18:09:37.079Z,101181.28
2022-08-10T18:12:10.297Z,101178.53
2022-08-10T18:14:46.006Z,101181.50
2022-08-10T18:17:13.816Z,101176.00
2022-08-10T18:19:41.715Z,101182.34
2022-08-10T18:22:09.524Z,101182.34
2022-08-10T18:24:37.240Z,101179.59
2022-08-10T18:27:07.112Z,101182.34
2022-08-10T18:29:34.973Z,101188.50
2022-08-10T18:32:03.020Z,101194.16
2022-08-10T18:34:30.778Z,101187.19
2022-08-10T18:36:58.542Z,101196.47
2022-08-10T18:39:26.499Z,101194.97
2022-08-10T18:42:00.561Z,101194.97
2022-08-10T18:44:33.043Z,101193.25
2022-08-10T18:47:00.917Z,101190.53
2022-08-10T18:49:28.649Z,101192.41
2022-08-10T18:51:57.072Z,101195.34
2022-08-10T18:54:31.699Z,101198.97
2022-08-10T18:57:11.900Z,101196.22
2022-08-10T18:59:40.328Z,101198.75
2022-08-10T19:02:28.649Z,101210.16
2022-08-10T19:04:56.626Z,101209.97
2022-08-10T19:07:24.484Z,101214.41
2022-08-10T19:09:52.240Z,101212.50
2022-08-10T19:15:01.994Z,101216.47
2022-08-10T19:18:01.248Z,101216.94
2022-08-10T19:20:22.054Z,101214.56
2022-08-10T19:22:49.799Z,101214.41
2022-08-10T19:25:17.545Z,101217.13
2022-08-10T19:28:06.381Z,101214.56
2022-08-10T19:30:34.304Z,101208.91
2022-08-10T19:33:02.026Z,101212.50
2022-08-10T19:35:29.790Z,101212.50
2022-08-10T19:38:00.762Z,101214.66
2022-08-10T19:40:43.915Z,101211.91
2022-08-10T19:43:12.688Z,101215.06
2022-08-10T19:46:01.420Z,101221.56
2022-08-10T19:48:30.844Z,101213.34
2022-08-10T19:50:58.543Z,101213.34
2022-08-10T19:53:26.283Z,101216.94
2022-08-10T19:55:54.073Z,101212.31
2022-08-10T19:58:22.150Z,101213.34
2022-08-10T20:00:50.416Z,101213.34
2022-08-10T20:03:18.338Z,101210.41
2022-08-10T20:06:19.567Z,101210.59
2022-08-10T20:08:34.115Z,101205.09
2022-08-10T20:11:01.829Z,101204.25
2022-08-10T20:13:29.558Z,101212.91
2022-08-10T20:15:57.273Z,101212.72
2022-08-10T20:18:25.281Z,101214.41
2022-08-10T20:20:53.268Z,101214.41
2022-08-10T20:23:21.113Z,101206.16
2022-08-10T20:25:48.873Z,101212.72
2022-08-10T20:28:16.718Z,101211.66
2022-08-10T20:30:44.457Z,101205.31
2022-08-10T20:33:12.343Z,101207.22
2022-08-10T20:35:40.328Z,101215.44
2022-08-10T20:38:08.249Z,101216.47
2022-08-10T20:40:36.323Z,101209.97
2022-08-10T20:43:04.087Z,101213.72
2022-08-10T20:45:51.821Z,101208.47
2022-08-10T20:48:21.265Z,101214.13
2022-08-10T20:50:49.039Z,101210.16
2022-08-10T20:53:16.769Z,101203.81
2022-08-10T20:55:46.992Z,101207.22
2022-08-10T20:58:24.052Z,101208.25
2022-08-10T21:00:52.553Z,101212.91
2022-08-10T21:03:22.181Z,101206.75
2022-08-10T21:05:53.660Z,101210.34
2022-08-10T21:08:22.577Z,101212.25
2022-08-10T21:10:50.507Z,101210.34
2022-08-10T21:13:18.216Z,101207.59
2022-08-10T21:15:45.928Z,101202.97
2022-08-10T21:18:14.135Z,101201.06
2022-08-10T21:20:54.359Z,101205.91
2022-08-10T21:23:22.754Z,101211.41
2022-08-10T21:25:59.078Z,101211.41
2022-08-10T21:28:29.070Z,101216.88
2022-08-10T21:30:55.959Z,101216.03
2022-08-10T21:33:22.541Z,101208.47
2022-08-10T21:35:49.132Z,101212.25
2022-08-10T21:38:15.672Z,101218.78
2022-08-10T21:41:18.082Z,101204.84
2022-08-10T21:43:51.648Z,101210.56
2022-08-10T21:46:37.006Z,101203.56
2022-08-10T21:49:23.034Z,101201.84
2022-08-10T21:52:08.774Z,101213.69
2022-08-10T21:54:54.200Z,101204.59
2022-08-10T21:57:43.385Z,101203.56
2022-08-10T22:00:29.531Z,101210.94
2022-08-10T22:03:14.872Z,101210.94
2022-08-10T22:06:03.212Z,101211.13
2022-08-10T22:08:48.502Z,101207.53
2022-08-10T22:11:37.371Z,101210.06
2022-08-10T22:14:22.877Z,101202.91
2022-08-10T22:17:59.987Z,101201.84
2022-08-10T22:20:16.293Z,101197.41
2022-08-10T22:23:19.317Z,101206.72
2022-08-10T22:26:12.180Z,101195.72
2022-08-10T22:28:57.574Z,101194.66
2022-08-10T22:31:43.340Z,101198.47
2022-08-10T22:34:28.770Z,101203.13
2022-08-10T22:37:13.907Z,101206.72
2022-08-10T22:40:11.756Z,101200.38
2022-08-10T22:43:11.145Z,101200.38
2022-08-10T22:45:57.408Z,101195.06
2022-08-10T22:48:43.091Z,101195.06
2022-08-10T22:51:15.677Z,101199.50
2022-08-10T22:54:01.200Z,101200.38
2022-08-10T22:56:46.283Z,101195.72
2022-08-10T22:59:14.036Z,101193.16
2022-08-10T23:02:07.876Z,101189.38
2022-08-10T23:04:35.648Z,101195.91
2022-08-10T23:07:03.968Z,101193.38
2022-08-10T23:09:34.880Z,101188.50
2022-08-10T23:12:02.719Z,101187.47
2022-08-10T23:14:35.824Z,101188.50
2022-08-10T23:17:21.174Z,101183.91
2022-08-10T23:19:51.339Z,101187.66
2022-08-10T23:22:19.006Z,101199.50
2022-08-10T23:24:46.861Z,101194.00
2022-08-10T23:27:38.781Z,101191.06
2022-08-10T23:30:10.881Z,101189.56
2022-08-10T23:32:44.658Z,101184.09
2022-08-10T23:36:31.773Z,101184.09
2022-08-10T23:37:59.987Z,101185.13
2022-08-10T23:40:27.693Z,101184.91
2022-08-10T23:42:55.406Z,101175.00
2022-08-10T23:45:23.120Z,101172.25
2022-08-10T23:47:51.016Z,101174.78
2022-08-10T23:50:18.765Z,101180.28
2022-08-10T23:52:46.649Z,101175.84
2022-08-10T23:55:14.344Z,101183.03
2022-08-10T23:57:42.114Z,101181.34
